sensor_id;sensor_type;location;lat;lon;timestamp;P1;durP1;ratioP1;P2;durP2;ratioP2
20894;SDS011;10607;42.066;24.742;2023-04-03T00:00:01;2.00;;;0.90;;
20894;SDS011;10607;42.066;24.742;2023-04-03T00:02:27;1.38;;;1.05;;
20894;SDS011;10607;42.066;24.742;2023-04-03T00:04:53;1.33;;;0.82;;
20894;SDS011;10607;42.066;24.742;2023-04-03T00:07:18;1.20;;;0.95;;
20894;SDS011;10607;42.066;24.742;2023-04-03T00:09:43;1.67;;;0.77;;
20894;SDS011;10607;42.066;24.742;2023-04-03T00:12:08;0.90;;;0.90;;
20894;SDS011;10607;42.066;24.742;2023-04-03T00:14:34;1.23;;;0.88;;
20894;SDS011;10607;42.066;24.742;2023-04-03T00:16:59;1.30;;;1.08;;
20894;SDS011;10607;42.066;24.742;2023-04-03T00:19:24;1.30;;;0.95;;
20894;SDS011;10607;42.066;24.742;2023-04-03T00:21:50;2.92;;;2.00;;
20894;SDS011;10607;42.066;24.742;2023-04-03T00:24:15;1.88;;;1.10;;
20894;SDS011;10607;42.066;24.742;2023-04-03T00:26:40;2.72;;;1.20;;
20894;SDS011;10607;42.066;24.742;2023-04-03T00:29:06;5.18;;;1.50;;
20894;SDS011;10607;42.066;24.742;2023-04-03T00:31:31;2.63;;;1.00;;
20894;SDS011;10607;42.066;24.742;2023-04-03T00:33:56;1.40;;;1.17;;
20894;SDS011;10607;42.066;24.742;2023-04-03T00:36:23;1.63;;;1.40;;
20894;SDS011;10607;42.066;24.742;2023-04-03T00:38:48;1.50;;;1.40;;
20894;SDS011;10607;42.066;24.742;2023-04-03T00:41:13;1.48;;;1.10;;
20894;SDS011;10607;42.066;24.742;2023-04-03T00:43:38;2.35;;;1.27;;
20894;SDS011;10607;42.066;24.742;2023-04-03T00:46:04;2.45;;;1.27;;
20894;SDS011;10607;42.066;24.742;2023-04-03T00:48:34;1.52;;;1.10;;
20894;SDS011;10607;42.066;24.742;2023-04-03T00:51:01;1.52;;;1.17;;
20894;SDS011;10607;42.066;24.742;2023-04-03T00:53:31;1.67;;;0.93;;
20894;SDS011;10607;42.066;24.742;2023-04-03T00:55:57;2.30;;;1.40;;
20894;SDS011;10607;42.066;24.742;2023-04-03T00:58:26;2.25;;;1.25;;
20894;SDS011;10607;42.066;24.742;2023-04-03T01:00:53;1.40;;;1.10;;
20894;SDS011;10607;42.066;24.742;2023-04-03T01:03:22;1.90;;;1.00;;
20894;SDS011;10607;42.066;24.742;2023-04-03T01:05:48;0.88;;;0.80;;
20894;SDS011;10607;42.066;24.742;2023-04-03T01:08:13;1.40;;;1.27;;
20894;SDS011;10607;42.066;24.742;2023-04-03T01:10:38;1.77;;;1.20;;
20894;SDS011;10607;42.066;24.742;2023-04-03T01:13:16;1.35;;;1.02;;
20894;SDS011;10607;42.066;24.742;2023-04-03T01:15:42;1.52;;;1.00;;
20894;SDS011;10607;42.066;24.742;2023-04-03T01:18:09;1.35;;;1.00;;
20894;SDS011;10607;42.066;24.742;2023-04-03T01:20:39;1.50;;;1.10;;
20894;SDS011;10607;42.066;24.742;2023-04-03T01:25:37;1.20;;;1.10;;
20894;SDS011;10607;42.066;24.742;2023-04-03T01:28:04;2.30;;;1.13;;
20894;SDS011;10607;42.066;24.742;2023-04-03T01:30:32;1.60;;;0.95;;
20894;SDS011;10607;42.066;24.742;2023-04-03T01:32:59;3.05;;;0.77;;
20894;SDS011;10607;42.066;24.742;2023-04-03T01:35:24;1.42;;;1.05;;
20894;SDS011;10607;42.066;24.742;2023-04-03T01:37:50;1.05;;;0.98;;
20894;SDS011;10607;42.066;24.742;2023-04-03T01:40:15;1.45;;;1.20;;
20894;SDS011;10607;42.066;24.742;2023-04-03T01:42:40;1.45;;;1.17;;
20894;SDS011;10607;42.066;24.742;2023-04-03T01:45:06;1.75;;;1.20;;
20894;SDS011;10607;42.066;24.742;2023-04-03T01:47:31;1.30;;;1.10;;
20894;SDS011;10607;42.066;24.742;2023-04-03T01:49:56;1.00;;;0.90;;
20894;SDS011;10607;42.066;24.742;2023-04-03T01:52:21;1.65;;;0.88;;
20894;SDS011;10607;42.066;24.742;2023-04-03T01:54:47;1.63;;;1.00;;
20894;SDS011;10607;42.066;24.742;2023-04-03T01:57:12;1.27;;;0.90;;
20894;SDS011;10607;42.066;24.742;2023-04-03T01:59:39;0.88;;;0.88;;
20894;SDS011;10607;42.066;24.742;2023-04-03T02:02:05;1.25;;;1.00;;
20894;SDS011;10607;42.066;24.742;2023-04-03T02:04:30;2.25;;;1.25;;
20894;SDS011;10607;42.066;24.742;2023-04-03T02:06:56;1.17;;;0.85;;
20894;SDS011;10607;42.066;24.742;2023-04-03T02:09:21;2.13;;;1.25;;
20894;SDS011;10607;42.066;24.742;2023-04-03T02:11:46;3.08;;;1.60;;
20894;SDS011;10607;42.066;24.742;2023-04-03T02:14:12;1.50;;;1.40;;
20894;SDS011;10607;42.066;24.742;2023-04-03T02:16:37;2.97;;;1.37;;
20894;SDS011;10607;42.066;24.742;2023-04-03T02:19:03;1.92;;;1.30;;
20894;SDS011;10607;42.066;24.742;2023-04-03T02:21:28;1.20;;;1.10;;
20894;SDS011;10607;42.066;24.742;2023-04-03T02:23:53;1.77;;;1.63;;
20894;SDS011;10607;42.066;24.742;2023-04-03T02:26:19;1.98;;;1.23;;
20894;SDS011;10607;42.066;24.742;2023-04-03T02:28:44;3.23;;;1.43;;
20894;SDS011;10607;42.066;24.742;2023-04-03T02:31:10;2.97;;;1.60;;
20894;SDS011;10607;42.066;24.742;2023-04-03T02:33:35;12.87;;;1.97;;
20894;SDS011;10607;42.066;24.742;2023-04-03T02:36:02;2.57;;;1.27;;
20894;SDS011;10607;42.066;24.742;2023-04-03T02:38:27;1.63;;;1.20;;
20894;SDS011;10607;42.066;24.742;2023-04-03T02:40:52;2.67;;;1.30;;
20894;SDS011;10607;42.066;24.742;2023-04-03T02:43:18;3.03;;;1.27;;
20894;SDS011;10607;42.066;24.742;2023-04-03T02:45:43;1.85;;;0.95;;
20894;SDS011;10607;42.066;24.742;2023-04-03T02:48:08;3.92;;;1.02;;
20894;SDS011;10607;42.066;24.742;2023-04-03T02:50:34;1.63;;;1.45;;
20894;SDS011;10607;42.066;24.742;2023-04-03T02:52:59;2.03;;;1.30;;
20894;SDS011;10607;42.066;24.742;2023-04-03T02:55:25;2.87;;;1.27;;
20894;SDS011;10607;42.066;24.742;2023-04-03T02:57:51;1.55;;;1.00;;
20894;SDS011;10607;42.066;24.742;2023-04-03T03:00:16;1.17;;;1.00;;
20894;SDS011;10607;42.066;24.742;2023-04-03T03:02:41;1.75;;;1.05;;
20894;SDS011;10607;42.066;24.742;2023-04-03T03:05:07;3.45;;;1.40;;
20894;SDS011;10607;42.066;24.742;2023-04-03T03:07:32;3.92;;;1.15;;
20894;SDS011;10607;42.066;24.742;2023-04-03T03:09:57;1.63;;;1.20;;
20894;SDS011;10607;42.066;24.742;2023-04-03T03:12:23;1.43;;;1.20;;
20894;SDS011;10607;42.066;24.742;2023-04-03T03:14:49;1.50;;;1.20;;
20894;SDS011;10607;42.066;24.742;2023-04-03T03:17:15;5.83;;;1.70;;
20894;SDS011;10607;42.066;24.742;2023-04-03T03:19:40;8.43;;;1.40;;
20894;SDS011;10607;42.066;24.742;2023-04-03T03:22:05;1.92;;;1.00;;
20894;SDS011;10607;42.066;24.742;2023-04-03T03:24:31;1.30;;;1.17;;
20894;SDS011;10607;42.066;24.742;2023-04-03T03:26:56;1.30;;;1.20;;
20894;SDS011;10607;42.066;24.742;2023-04-03T03:29:21;1.35;;;1.13;;
20894;SDS011;10607;42.066;24.742;2023-04-03T03:31:46;1.23;;;1.00;;
20894;SDS011;10607;42.066;24.742;2023-04-03T03:34:12;3.88;;;0.98;;
20894;SDS011;10607;42.066;24.742;2023-04-03T03:36:37;7.73;;;1.67;;
20894;SDS011;10607;42.066;24.742;2023-04-03T03:39:03;3.70;;;1.07;;
20894;SDS011;10607;42.066;24.742;2023-04-03T03:41:28;1.20;;;0.93;;
20894;SDS011;10607;42.066;24.742;2023-04-03T03:43:53;2.67;;;1.13;;
20894;SDS011;10607;42.066;24.742;2023-04-03T03:46:19;1.43;;;0.97;;
20894;SDS011;10607;42.066;24.742;2023-04-03T03:48:44;2.13;;;1.00;;
20894;SDS011;10607;42.066;24.742;2023-04-03T03:51:10;2.60;;;1.30;;
20894;SDS011;10607;42.066;24.742;2023-04-03T03:53:35;1.10;;;1.00;;
20894;SDS011;10607;42.066;24.742;2023-04-03T03:56:00;3.27;;;1.50;;
20894;SDS011;10607;42.066;24.742;2023-04-03T03:58:26;3.73;;;1.90;;
20894;SDS011;10607;42.066;24.742;2023-04-03T04:00:51;10.20;;;2.83;;
20894;SDS011;10607;42.066;24.742;2023-04-03T04:03:16;8.30;;;1.87;;
20894;SDS011;10607;42.066;24.742;2023-04-03T04:05:42;2.20;;;1.30;;
20894;SDS011;10607;42.066;24.742;2023-04-03T04:08:07;4.57;;;1.20;;
20894;SDS011;10607;42.066;24.742;2023-04-03T04:10:33;4.40;;;1.60;;
20894;SDS011;10607;42.066;24.742;2023-04-03T04:12:59;3.87;;;1.40;;
20894;SDS011;10607;42.066;24.742;2023-04-03T04:15:24;4.27;;;1.80;;
20894;SDS011;10607;42.066;24.742;2023-04-03T04:17:50;4.30;;;1.70;;
20894;SDS011;10607;42.066;24.742;2023-04-03T04:20:16;3.23;;;1.80;;
20894;SDS011;10607;42.066;24.742;2023-04-03T04:22:41;2.30;;;1.93;;
20894;SDS011;10607;42.066;24.742;2023-04-03T04:25:06;5.00;;;2.00;;
20894;SDS011;10607;42.066;24.742;2023-04-03T04:27:32;4.67;;;1.97;;
20894;SDS011;10607;42.066;24.742;2023-04-03T04:29:57;6.43;;;2.23;;
20894;SDS011;10607;42.066;24.742;2023-04-03T04:32:22;5.37;;;1.70;;
20894;SDS011;10607;42.066;24.742;2023-04-03T04:34:48;4.00;;;1.80;;
20894;SDS011;10607;42.066;24.742;2023-04-03T04:37:13;1.53;;;1.23;;
20894;SDS011;10607;42.066;24.742;2023-04-03T04:39:38;5.27;;;1.53;;
20894;SDS011;10607;42.066;24.742;2023-04-03T04:42:04;3.13;;;1.70;;
20894;SDS011;10607;42.066;24.742;2023-04-03T04:44:29;2.33;;;0.93;;
20894;SDS011;10607;42.066;24.742;2023-04-03T04:46:55;4.70;;;1.40;;
20894;SDS011;10607;42.066;24.742;2023-04-03T04:49:20;1.30;;;1.10;;
20894;SDS011;10607;42.066;24.742;2023-04-03T04:51:45;7.10;;;1.67;;
20894;SDS011;10607;42.066;24.742;2023-04-03T04:54:10;4.17;;;1.50;;
20894;SDS011;10607;42.066;24.742;2023-04-03T04:56:36;2.20;;;1.20;;
20894;SDS011;10607;42.066;24.742;2023-04-03T04:59:01;5.80;;;2.17;;
20894;SDS011;10607;42.066;24.742;2023-04-03T05:01:26;8.47;;;3.80;;
20894;SDS011;10607;42.066;24.742;2023-04-03T05:03:52;5.03;;;2.67;;
20894;SDS011;10607;42.066;24.742;2023-04-03T05:06:17;6.60;;;2.45;;
20894;SDS011;10607;42.066;24.742;2023-04-03T05:08:42;5.07;;;2.28;;
20894;SDS011;10607;42.066;24.742;2023-04-03T05:11:07;4.75;;;2.53;;
20894;SDS011;10607;42.066;24.742;2023-04-03T05:13:33;8.95;;;3.70;;
20894;SDS011;10607;42.066;24.742;2023-04-03T05:15:58;6.50;;;2.90;;
20894;SDS011;10607;42.066;24.742;2023-04-03T05:18:24;6.65;;;2.92;;
20894;SDS011;10607;42.066;24.742;2023-04-03T05:20:49;6.63;;;3.75;;
20894;SDS011;10607;42.066;24.742;2023-04-03T05:23:15;5.25;;;3.17;;
20894;SDS011;10607;42.066;24.742;2023-04-03T05:25:41;8.85;;;2.78;;
20894;SDS011;10607;42.066;24.742;2023-04-03T05:28:06;5.68;;;2.63;;
20894;SDS011;10607;42.066;24.742;2023-04-03T05:30:32;7.20;;;2.92;;
20894;SDS011;10607;42.066;24.742;2023-04-03T05:32:58;7.82;;;3.50;;
20894;SDS011;10607;42.066;24.742;2023-04-03T05:35:23;4.65;;;3.30;;
20894;SDS011;10607;42.066;24.742;2023-04-03T05:37:49;6.53;;;3.40;;
20894;SDS011;10607;42.066;24.742;2023-04-03T05:40:14;7.20;;;2.75;;
20894;SDS011;10607;42.066;24.742;2023-04-03T05:42:39;5.82;;;3.33;;
20894;SDS011;10607;42.066;24.742;2023-04-03T05:45:05;11.70;;;5.70;;
20894;SDS011;10607;42.066;24.742;2023-04-03T05:47:31;16.08;;;5.00;;
20894;SDS011;10607;42.066;24.742;2023-04-03T05:49:56;11.40;;;4.40;;
20894;SDS011;10607;42.066;24.742;2023-04-03T05:52:23;11.10;;;3.65;;
20894;SDS011;10607;42.066;24.742;2023-04-03T05:54:50;11.13;;;3.75;;
20894;SDS011;10607;42.066;24.742;2023-04-03T05:57:15;12.40;;;4.35;;
20894;SDS011;10607;42.066;24.742;2023-04-03T05:59:41;10.55;;;5.15;;
20894;SDS011;10607;42.066;24.742;2023-04-03T06:02:09;52.90;;;15.98;;
20894;SDS011;10607;42.066;24.742;2023-04-03T06:04:34;39.90;;;12.48;;
20894;SDS011;10607;42.066;24.742;2023-04-03T06:06:59;12.52;;;5.40;;
20894;SDS011;10607;42.066;24.742;2023-04-03T06:09:26;11.57;;;3.35;;
20894;SDS011;10607;42.066;24.742;2023-04-03T06:11:52;8.98;;;3.90;;
20894;SDS011;10607;42.066;24.742;2023-04-03T06:14:18;13.57;;;8.32;;
20894;SDS011;10607;42.066;24.742;2023-04-03T06:16:43;23.70;;;10.93;;
20894;SDS011;10607;42.066;24.742;2023-04-03T06:19:11;22.08;;;11.90;;
20894;SDS011;10607;42.066;24.742;2023-04-03T06:21:36;15.30;;;8.57;;
20894;SDS011;10607;42.066;24.742;2023-04-03T06:24:05;13.63;;;7.05;;
20894;SDS011;10607;42.066;24.742;2023-04-03T06:26:31;12.68;;;5.55;;
20894;SDS011;10607;42.066;24.742;2023-04-03T06:28:56;12.07;;;5.30;;
20894;SDS011;10607;42.066;24.742;2023-04-03T06:31:21;17.73;;;5.03;;
20894;SDS011;10607;42.066;24.742;2023-04-03T06:33:47;11.95;;;6.05;;
20894;SDS011;10607;42.066;24.742;2023-04-03T06:36:12;17.77;;;6.15;;
20894;SDS011;10607;42.066;24.742;2023-04-03T06:38:38;7.75;;;5.55;;
20894;SDS011;10607;42.066;24.742;2023-04-03T06:41:03;11.27;;;5.47;;
20894;SDS011;10607;42.066;24.742;2023-04-03T06:43:29;7.65;;;5.38;;
20894;SDS011;10607;42.066;24.742;2023-04-03T06:45:56;12.98;;;5.65;;
20894;SDS011;10607;42.066;24.742;2023-04-03T06:48:21;8.20;;;5.43;;
20894;SDS011;10607;42.066;24.742;2023-04-03T06:50:47;13.60;;;5.75;;
20894;SDS011;10607;42.066;24.742;2023-04-03T06:53:12;9.93;;;5.57;;
20894;SDS011;10607;42.066;24.742;2023-04-03T06:55:37;12.77;;;5.38;;
20894;SDS011;10607;42.066;24.742;2023-04-03T06:58:03;7.43;;;4.90;;
20894;SDS011;10607;42.066;24.742;2023-04-03T07:00:28;14.32;;;4.97;;
20894;SDS011;10607;42.066;24.742;2023-04-03T07:02:54;13.32;;;5.57;;
20894;SDS011;10607;42.066;24.742;2023-04-03T07:05:21;12.07;;;5.78;;
20894;SDS011;10607;42.066;24.742;2023-04-03T07:07:46;7.72;;;4.82;;
20894;SDS011;10607;42.066;24.742;2023-04-03T07:10:12;12.63;;;5.95;;
20894;SDS011;10607;42.066;24.742;2023-04-03T07:12:37;16.98;;;5.90;;
20894;SDS011;10607;42.066;24.742;2023-04-03T07:15:03;11.13;;;4.85;;
20894;SDS011;10607;42.066;24.742;2023-04-03T07:17:29;15.95;;;5.50;;
20894;SDS011;10607;42.066;24.742;2023-04-03T07:19:54;9.32;;;4.68;;
20894;SDS011;10607;42.066;24.742;2023-04-03T07:22:19;5.82;;;4.18;;
20894;SDS011;10607;42.066;24.742;2023-04-03T07:24:45;8.93;;;4.00;;
20894;SDS011;10607;42.066;24.742;2023-04-03T07:27:11;8.02;;;4.07;;
20894;SDS011;10607;42.066;24.742;2023-04-03T07:29:37;12.90;;;4.95;;
20894;SDS011;10607;42.066;24.742;2023-04-03T07:32:03;10.95;;;4.38;;
20894;SDS011;10607;42.066;24.742;2023-04-03T07:34:29;14.18;;;5.00;;
20894;SDS011;10607;42.066;24.742;2023-04-03T07:36:55;10.32;;;4.60;;
20894;SDS011;10607;42.066;24.742;2023-04-03T07:39:21;16.73;;;6.57;;
20894;SDS011;10607;42.066;24.742;2023-04-03T07:41:47;11.32;;;6.00;;
20894;SDS011;10607;42.066;24.742;2023-04-03T07:44:12;11.60;;;4.68;;
20894;SDS011;10607;42.066;24.742;2023-04-03T07:46:37;10.95;;;5.25;;
20894;SDS011;10607;42.066;24.742;2023-04-03T07:49:03;16.70;;;5.72;;
20894;SDS011;10607;42.066;24.742;2023-04-03T07:51:28;13.52;;;5.70;;
20894;SDS011;10607;42.066;24.742;2023-04-03T07:53:54;15.32;;;6.10;;
20894;SDS011;10607;42.066;24.742;2023-04-03T07:56:20;21.27;;;6.63;;
20894;SDS011;10607;42.066;24.742;2023-04-03T07:58:45;18.20;;;7.40;;
20894;SDS011;10607;42.066;24.742;2023-04-03T08:01:11;11.30;;;6.10;;
20894;SDS011;10607;42.066;24.742;2023-04-03T08:03:36;16.20;;;6.97;;
20894;SDS011;10607;42.066;24.742;2023-04-03T08:06:03;15.25;;;6.88;;
20894;SDS011;10607;42.066;24.742;2023-04-03T08:08:29;18.75;;;5.97;;
20894;SDS011;10607;42.066;24.742;2023-04-03T08:10:55;19.67;;;6.50;;
20894;SDS011;10607;42.066;24.742;2023-04-03T08:13:20;12.43;;;4.85;;
20894;SDS011;10607;42.066;24.742;2023-04-03T08:15:46;9.18;;;4.32;;
20894;SDS011;10607;42.066;24.742;2023-04-03T08:18:11;13.15;;;4.25;;
20894;SDS011;10607;42.066;24.742;2023-04-03T08:20:37;11.32;;;4.22;;
20894;SDS011;10607;42.066;24.742;2023-04-03T08:23:03;11.18;;;3.88;;
20894;SDS011;10607;42.066;24.742;2023-04-03T08:25:28;4.43;;;3.15;;
20894;SDS011;10607;42.066;24.742;2023-04-03T08:27:54;9.95;;;3.42;;
20894;SDS011;10607;42.066;24.742;2023-04-03T08:30:20;11.65;;;3.90;;
20894;SDS011;10607;42.066;24.742;2023-04-03T08:32:45;12.00;;;4.28;;
20894;SDS011;10607;42.066;24.742;2023-04-03T08:35:11;11.55;;;5.05;;
20894;SDS011;10607;42.066;24.742;2023-04-03T08:37:36;18.80;;;5.63;;
20894;SDS011;10607;42.066;24.742;2023-04-03T08:40:05;11.52;;;6.00;;
20894;SDS011;10607;42.066;24.742;2023-04-03T08:45:09;9.50;;;5.38;;
20894;SDS011;10607;42.066;24.742;2023-04-03T08:47:39;10.23;;;5.35;;
20894;SDS011;10607;42.066;24.742;2023-04-03T08:50:06;12.07;;;5.90;;
20894;SDS011;10607;42.066;24.742;2023-04-03T08:55:01;12.55;;;5.53;;
20894;SDS011;10607;42.066;24.742;2023-04-03T08:57:29;17.42;;;5.45;;
20894;SDS011;10607;42.066;24.742;2023-04-03T08:59:57;19.48;;;5.28;;
20894;SDS011;10607;42.066;24.742;2023-04-03T09:02:31;13.57;;;5.30;;
20894;SDS011;10607;42.066;24.742;2023-04-03T09:04:58;9.98;;;4.90;;
20894;SDS011;10607;42.066;24.742;2023-04-03T09:07:43;10.63;;;4.53;;
20894;SDS011;10607;42.066;24.742;2023-04-03T09:10:10;15.80;;;4.50;;
20894;SDS011;10607;42.066;24.742;2023-04-03T09:12:38;11.85;;;4.68;;
20894;SDS011;10607;42.066;24.742;2023-04-03T09:20:25;11.48;;;4.00;;
20894;SDS011;10607;42.066;24.742;2023-04-03T09:22:52;9.48;;;3.38;;
20894;SDS011;10607;42.066;24.742;2023-04-03T09:25:32;10.07;;;3.95;;
20894;SDS011;10607;42.066;24.742;2023-04-03T09:27:59;12.10;;;3.83;;
20894;SDS011;10607;42.066;24.742;2023-04-03T09:30:25;11.23;;;3.92;;
20894;SDS011;10607;42.066;24.742;2023-04-03T09:32:51;6.28;;;2.90;;
20894;SDS011;10607;42.066;24.742;2023-04-03T09:37:44;8.77;;;3.67;;
20894;SDS011;10607;42.066;24.742;2023-04-03T09:42:51;9.18;;;3.40;;
20894;SDS011;10607;42.066;24.742;2023-04-03T09:45:24;7.88;;;4.15;;
20894;SDS011;10607;42.066;24.742;2023-04-03T09:56:01;7.43;;;4.07;;
20894;SDS011;10607;42.066;24.742;2023-04-03T09:58:32;6.93;;;4.38;;
20894;SDS011;10607;42.066;24.742;2023-04-03T10:00:59;8.02;;;4.25;;
20894;SDS011;10607;42.066;24.742;2023-04-03T10:03:34;14.35;;;9.40;;
20894;SDS011;10607;42.066;24.742;2023-04-03T10:06:02;101.13;;;53.78;;
20894;SDS011;10607;42.066;24.742;2023-04-03T10:08:32;34.50;;;22.05;;
20894;SDS011;10607;42.066;24.742;2023-04-03T10:11:17;45.05;;;27.38;;
20894;SDS011;10607;42.066;24.742;2023-04-03T10:14:15;19.02;;;11.25;;
20894;SDS011;10607;42.066;24.742;2023-04-03T10:16:36;21.50;;;14.02;;
20894;SDS011;10607;42.066;24.742;2023-04-03T10:21:50;7.55;;;4.40;;
20894;SDS011;10607;42.066;24.742;2023-04-03T10:24:23;11.15;;;6.95;;
20894;SDS011;10607;42.066;24.742;2023-04-03T10:26:53;22.17;;;12.75;;
20894;SDS011;10607;42.066;24.742;2023-04-03T10:29:42;25.75;;;11.13;;
20894;SDS011;10607;42.066;24.742;2023-04-03T10:34:46;44.97;;;18.15;;
20894;SDS011;10607;42.066;24.742;2023-04-03T10:37:22;77.18;;;31.13;;
20894;SDS011;10607;42.066;24.742;2023-04-03T10:53:01;6.93;;;4.25;;
20894;SDS011;10607;42.066;24.742;2023-04-03T10:55:34;12.55;;;7.20;;
20894;SDS011;10607;42.066;24.742;2023-04-03T10:58:00;6.90;;;3.40;;
20894;SDS011;10607;42.066;24.742;2023-04-03T11:03:29;17.63;;;8.80;;
20894;SDS011;10607;42.066;24.742;2023-04-03T11:05:56;16.98;;;8.88;;
20894;SDS011;10607;42.066;24.742;2023-04-03T11:11:08;17.70;;;8.25;;
20894;SDS011;10607;42.066;24.742;2023-04-03T11:13:43;21.58;;;8.63;;
20894;SDS011;10607;42.066;24.742;2023-04-03T11:16:09;6.05;;;3.15;;
20894;SDS011;10607;42.066;24.742;2023-04-03T11:18:41;5.60;;;2.92;;
20894;SDS011;10607;42.066;24.742;2023-04-03T11:21:20;22.63;;;8.40;;
20894;SDS011;10607;42.066;24.742;2023-04-03T11:23:47;10.50;;;3.72;;
20894;SDS011;10607;42.066;24.742;2023-04-03T11:26:13;31.63;;;12.25;;
20894;SDS011;10607;42.066;24.742;2023-04-03T11:28:39;48.40;;;18.30;;
20894;SDS011;10607;42.066;24.742;2023-04-03T11:38:48;74.97;;;27.55;;
20894;SDS011;10607;42.066;24.742;2023-04-03T11:41:14;69.63;;;25.83;;
20894;SDS011;10607;42.066;24.742;2023-04-03T11:43:41;74.13;;;26.88;;
20894;SDS011;10607;42.066;24.742;2023-04-03T11:46:07;54.35;;;20.92;;
20894;SDS011;10607;42.066;24.742;2023-04-03T11:55:53;12.77;;;8.05;;
20894;SDS011;10607;42.066;24.742;2023-04-03T11:58:22;10.10;;;7.20;;
20894;SDS011;10607;42.066;24.742;2023-04-03T12:00:48;27.05;;;12.73;;
20894;SDS011;10607;42.066;24.742;2023-04-03T12:08:29;15.65;;;6.28;;
20894;SDS011;10607;42.066;24.742;2023-04-03T12:13:36;15.25;;;6.50;;
20894;SDS011;10607;42.066;24.742;2023-04-03T12:16:02;17.98;;;7.68;;
20894;SDS011;10607;42.066;24.742;2023-04-03T12:20:57;16.20;;;7.30;;
20894;SDS011;10607;42.066;24.742;2023-04-03T12:25:49;9.05;;;5.07;;
20894;SDS011;10607;42.066;24.742;2023-04-03T12:28:14;6.60;;;3.30;;
20894;SDS011;10607;42.066;24.742;2023-04-03T12:30:40;5.07;;;3.47;;
20894;SDS011;10607;42.066;24.742;2023-04-03T12:45:48;36.53;;;15.98;;
20894;SDS011;10607;42.066;24.742;2023-04-03T12:48:16;14.57;;;6.75;;
20894;SDS011;10607;42.066;24.742;2023-04-03T12:50:42;77.05;;;28.33;;
20894;SDS011;10607;42.066;24.742;2023-04-03T12:53:28;40.40;;;14.18;;
20894;SDS011;10607;42.066;24.742;2023-04-03T12:56:18;39.28;;;16.15;;
20894;SDS011;10607;42.066;24.742;2023-04-03T12:58:43;96.07;;;32.85;;
20894;SDS011;10607;42.066;24.742;2023-04-03T13:01:12;10.60;;;5.90;;
20894;SDS011;10607;42.066;24.742;2023-04-03T13:03:40;80.18;;;25.83;;
20894;SDS011;10607;42.066;24.742;2023-04-03T13:06:10;25.65;;;11.45;;
20894;SDS011;10607;42.066;24.742;2023-04-03T13:08:38;48.70;;;17.83;;
20894;SDS011;10607;42.066;24.742;2023-04-03T13:11:13;15.90;;;7.47;;
20894;SDS011;10607;42.066;24.742;2023-04-03T13:13:38;26.80;;;10.98;;
20894;SDS011;10607;42.066;24.742;2023-04-03T13:16:08;33.08;;;12.77;;
20894;SDS011;10607;42.066;24.742;2023-04-03T13:18:35;20.55;;;9.18;;
20894;SDS011;10607;42.066;24.742;2023-04-03T13:21:19;10.43;;;6.82;;
20894;SDS011;10607;42.066;24.742;2023-04-03T13:23:46;31.98;;;14.80;;
20894;SDS011;10607;42.066;24.742;2023-04-03T13:26:14;11.90;;;8.00;;
20894;SDS011;10607;42.066;24.742;2023-04-03T13:28:41;46.53;;;18.27;;
20894;SDS011;10607;42.066;24.742;2023-04-03T13:33:53;23.20;;;10.10;;
20894;SDS011;10607;42.066;24.742;2023-04-03T13:36:24;55.85;;;20.75;;
20894;SDS011;10607;42.066;24.742;2023-04-03T13:39:02;18.95;;;9.82;;
20894;SDS011;10607;42.066;24.742;2023-04-03T13:41:32;60.10;;;23.38;;
20894;SDS011;10607;42.066;24.742;2023-04-03T13:44:14;39.20;;;14.52;;
20894;SDS011;10607;42.066;24.742;2023-04-03T13:46:39;43.35;;;17.65;;
20894;SDS011;10607;42.066;24.742;2023-04-03T13:49:16;33.70;;;14.02;;
20894;SDS011;10607;42.066;24.742;2023-04-03T13:51:42;28.92;;;12.45;;
20894;SDS011;10607;42.066;24.742;2023-04-03T13:54:24;35.47;;;16.63;;
20894;SDS011;10607;42.066;24.742;2023-04-03T13:56:54;34.28;;;15.20;;
20894;SDS011;10607;42.066;24.742;2023-04-03T14:06:43;23.98;;;10.95;;
20894;SDS011;10607;42.066;24.742;2023-04-03T14:09:08;15.73;;;9.38;;
20894;SDS011;10607;42.066;24.742;2023-04-03T14:11:34;23.35;;;11.75;;
20894;SDS011;10607;42.066;24.742;2023-04-03T14:14:05;23.63;;;11.50;;
20894;SDS011;10607;42.066;24.742;2023-04-03T14:16:32;33.90;;;16.48;;
20894;SDS011;10607;42.066;24.742;2023-04-03T14:18:58;32.97;;;15.85;;
20894;SDS011;10607;42.066;24.742;2023-04-03T14:21:23;23.88;;;13.57;;
20894;SDS011;10607;42.066;24.742;2023-04-03T14:23:48;24.50;;;14.10;;
20894;SDS011;10607;42.066;24.742;2023-04-03T14:26:16;37.65;;;17.55;;
20894;SDS011;10607;42.066;24.742;2023-04-03T14:28:43;28.73;;;14.65;;
20894;SDS011;10607;42.066;24.742;2023-04-03T14:31:09;22.55;;;12.38;;
20894;SDS011;10607;42.066;24.742;2023-04-03T14:33:35;26.15;;;14.05;;
20894;SDS011;10607;42.066;24.742;2023-04-03T14:36:01;19.75;;;11.80;;
20894;SDS011;10607;42.066;24.742;2023-04-03T14:38:28;24.58;;;14.30;;
20894;SDS011;10607;42.066;24.742;2023-04-03T14:40:54;19.67;;;12.95;;
20894;SDS011;10607;42.066;24.742;2023-04-03T14:43:20;23.10;;;13.73;;
20894;SDS011;10607;42.066;24.742;2023-04-03T14:45:46;21.58;;;13.18;;
20894;SDS011;10607;42.066;24.742;2023-04-03T14:48:19;19.27;;;12.07;;
20894;SDS011;10607;42.066;24.742;2023-04-03T14:50:45;21.05;;;12.20;;
20894;SDS011;10607;42.066;24.742;2023-04-03T14:53:10;17.48;;;11.50;;
20894;SDS011;10607;42.066;24.742;2023-04-03T14:55:37;19.83;;;12.23;;
20894;SDS011;10607;42.066;24.742;2023-04-03T14:58:03;16.40;;;11.20;;
20894;SDS011;10607;42.066;24.742;2023-04-03T15:00:28;13.65;;;9.38;;
20894;SDS011;10607;42.066;24.742;2023-04-03T15:02:53;24.02;;;12.00;;
20894;SDS011;10607;42.066;24.742;2023-04-03T15:05:18;23.42;;;11.90;;
20894;SDS011;10607;42.066;24.742;2023-04-03T15:07:46;17.38;;;10.02;;
20894;SDS011;10607;42.066;24.742;2023-04-03T15:10:19;19.08;;;9.55;;
20894;SDS011;10607;42.066;24.742;2023-04-03T15:12:45;19.27;;;10.93;;
20894;SDS011;10607;42.066;24.742;2023-04-03T15:15:10;21.90;;;12.82;;
20894;SDS011;10607;42.066;24.742;2023-04-03T15:17:36;24.73;;;12.50;;
20894;SDS011;10607;42.066;24.742;2023-04-03T15:20:01;27.75;;;13.70;;
20894;SDS011;10607;42.066;24.742;2023-04-03T15:22:27;20.73;;;13.88;;
20894;SDS011;10607;42.066;24.742;2023-04-03T15:24:52;18.77;;;13.27;;
20894;SDS011;10607;42.066;24.742;2023-04-03T15:27:17;29.27;;;13.68;;
20894;SDS011;10607;42.066;24.742;2023-04-03T15:29:43;19.90;;;12.02;;
20894;SDS011;10607;42.066;24.742;2023-04-03T15:32:08;25.58;;;13.00;;
20894;SDS011;10607;42.066;24.742;2023-04-03T15:34:34;24.52;;;15.45;;
20894;SDS011;10607;42.066;24.742;2023-04-03T15:36:59;31.83;;;17.25;;
20894;SDS011;10607;42.066;24.742;2023-04-03T15:39:25;25.92;;;14.95;;
20894;SDS011;10607;42.066;24.742;2023-04-03T15:41:50;26.80;;;17.92;;
20894;SDS011;10607;42.066;24.742;2023-04-03T15:44:17;31.38;;;19.38;;
20894;SDS011;10607;42.066;24.742;2023-04-03T15:46:42;31.63;;;20.80;;
20894;SDS011;10607;42.066;24.742;2023-04-03T15:49:08;32.38;;;16.65;;
20894;SDS011;10607;42.066;24.742;2023-04-03T15:51:33;27.77;;;16.88;;
20894;SDS011;10607;42.066;24.742;2023-04-03T15:53:58;29.52;;;14.80;;
20894;SDS011;10607;42.066;24.742;2023-04-03T15:56:24;28.70;;;15.10;;
20894;SDS011;10607;42.066;24.742;2023-04-03T15:58:49;21.58;;;11.98;;
20894;SDS011;10607;42.066;24.742;2023-04-03T16:01:15;18.38;;;10.00;;